Guthrie, Oklahoma
Current Conditions -  °F | °C
As of 10:53 PM on Friday 19 Dec 2014 (Local Time) from KGOK Reporting Station
Haze Haze  
Wind Chill: 39°   Ceiling: 2800
Heat Index: 39°   Visibility: 5mi
Dew Point: 37°   Wind: 3mph
Humidity: 93%   Direction: 170°S
Pressure: 30.22"   Gusts: NA
Location:  35.88°N, 97.42°W
Report Text: KGOK 200453Z AUTO 17003KT 5SM BR OVC028 04/03 A3022 RMK AO2 SLP240 T00390028
Loading
Personal Weather Stations






























Interactive Weather Map New forecast layout! Learn more

10-Day Weather Forecast

Advertisements
Track Severe Weather on mobile